Time;durP1;ratioP1;P1;durP2;ratioP2;P2;SDS_P1;SDS_P2;PMS_P1;PMS_P2;Temp;Humidity;BMP_temperature;BMP_pressure;BME280_temperature;BME280_humidity;BME280_pressure;Samples;Min_cycle;Max_cycle;Signal;HPM_P1;HPM_P2
2023/12/20 00:01:45;;;;;;;3.63;1.80;;;8.30;99.90;;;;;;4424990;28;655733;-72
2023/12/20 00:04:32;;;;;;;6.57;2.97;;;8.30;99.90;;;;;;4420565;28;656092;-71
2023/12/20 00:07:19;;;;;;;4.33;2.20;;;8.40;99.90;;;;;;4400900;28;656511;-72
2023/12/20 00:10:07;;;;;;;7.10;3.23;;;8.40;99.90;;;;;;4429791;28;655718;-72
2023/12/20 00:12:55;;;;;;;2.67;1.43;;;8.30;99.90;;;;;;4397241;28;656079;-72
2023/12/20 00:15:43;;;;;;;3.63;1.43;;;8.20;99.90;;;;;;4405250;28;655729;-71
2023/12/20 00:18:30;;;;;;;5.47;3.03;;;8.30;99.90;;;;;;4424672;28;656553;-71
2023/12/20 00:21:17;;;;;;;2.97;1.83;;;8.10;99.90;;;;;;4426998;28;655514;-72
2023/12/20 00:24:05;;;;;;;6.55;3.30;;;8.10;99.90;;;;;;4433208;28;656168;-72
2023/12/20 00:26:53;;;;;;;5.03;2.63;;;8.00;99.90;;;;;;4424205;28;655337;-72
2023/12/20 00:29:43;;;;;;;6.30;3.17;;;8.00;99.90;;;;;;4427456;28;656375;-72
2023/12/20 00:32:30;;;;;;;8.40;3.53;;;7.90;99.90;;;;;;4399383;28;656064;-72
2023/12/20 00:35:18;;;;;;;8.23;2.73;;;7.90;99.90;;;;;;4426876;28;656040;-71
2023/12/20 00:38:06;;;;;;;8.80;3.63;;;7.90;99.90;;;;;;4428587;28;656460;-72
2023/12/20 00:40:54;;;;;;;5.50;1.93;;;7.80;99.90;;;;;;4402872;28;655530;-71
2023/12/20 00:43:41;;;;;;;6.37;3.33;;;7.80;99.90;;;;;;4431837;28;656988;-72
2023/12/20 00:46:29;;;;;;;2.53;1.50;;;7.70;99.90;;;;;;4406440;28;655076;-72
2023/12/20 00:49:16;;;;;;;4.57;2.40;;;7.60;99.90;;;;;;4436365;28;655640;-71
2023/12/20 00:52:04;;;;;;;4.83;1.90;;;7.60;99.90;;;;;;4411678;28;656011;-72
2023/12/20 00:54:52;;;;;;;5.77;3.00;;;7.70;99.90;;;;;;4427842;28;655814;-72
2023/12/20 00:57:39;;;;;;;3.87;1.77;;;7.60;99.90;;;;;;4410393;28;656198;-71
2023/12/20 01:00:26;;;;;;;5.70;2.63;;;7.80;99.90;;;;;;4438374;28;654980;-72
2023/12/20 01:03:15;;;;;;;6.43;2.93;;;7.70;99.90;;;;;;4409449;28;656135;-72
2023/12/20 01:06:04;;;;;;;7.93;2.90;;;7.60;99.90;;;;;;4430100;28;655380;-71
2023/12/20 01:08:51;;;;;;;7.67;3.30;;;7.50;99.90;;;;;;4428691;28;655709;-73
2023/12/20 01:11:38;;;;;;;4.17;1.93;;;7.50;99.90;;;;;;4404274;28;656034;-72
2023/12/20 01:14:25;;;;;;;6.68;3.08;;;7.50;99.90;;;;;;4438162;28;655787;-72
2023/12/20 01:17:13;;;;;;;5.13;1.87;;;7.50;99.90;;;;;;4415563;28;655730;-71
2023/12/20 01:20:02;;;;;;;4.07;2.20;;;7.50;99.90;;;;;;4435612;28;655932;-72
2023/12/20 01:22:49;;;;;;;4.40;2.13;;;7.50;99.90;;;;;;4410567;28;656315;-72
2023/12/20 01:25:36;;;;;;;5.73;2.77;;;7.40;99.90;;;;;;4431371;28;656691;-72
2023/12/20 01:28:23;;;;;;;3.47;1.87;;;7.50;99.90;;;;;;4401950;28;655537;-72
2023/12/20 01:31:10;;;;;;;4.70;1.80;;;7.40;99.90;;;;;;4439919;28;656391;-72
2023/12/20 01:33:57;;;;;;;6.73;1.37;;;7.30;99.90;;;;;;4411767;28;655576;-71
2023/12/20 01:36:46;;;;;;;5.07;2.33;;;7.30;99.90;;;;;;4431249;28;656351;-72
2023/12/20 01:39:33;;;;;;;4.63;2.27;;;7.40;99.90;;;;;;4415945;28;655650;-72
2023/12/20 01:42:21;;;;;;;3.90;1.83;;;7.20;99.90;;;;;;4437175;28;655937;-72
2023/12/20 01:45:09;;;;;;;4.50;2.03;;;7.40;99.90;;;;;;4409842;28;656018;-72
2023/12/20 01:47:57;;;;;;;6.55;2.72;;;7.30;99.90;;;;;;4430832;28;655308;-72
2023/12/20 01:50:45;;;;;;;8.53;2.27;;;7.20;99.90;;;;;;4408303;28;655983;-71
2023/12/20 01:53:33;;;;;;;4.97;2.47;;;7.30;99.90;;;;;;4430506;28;655094;-72
2023/12/20 01:56:20;;;;;;;6.50;3.30;;;7.20;99.90;;;;;;4403771;28;655931;-72
2023/12/20 01:59:08;;;;;;;5.93;2.20;;;7.30;99.90;;;;;;4410649;28;656875;-71
2023/12/20 02:01:56;;;;;;;7.40;2.77;;;7.40;99.90;;;;;;4427703;28;656294;-72
2023/12/20 02:04:43;;;;;;;7.00;3.27;;;7.30;99.90;;;;;;4407833;28;655506;-72
2023/12/20 02:07:30;;;;;;;2.10;1.23;;;7.20;99.90;;;;;;4435367;28;656145;-72
2023/12/20 02:10:19;;;;;;;4.80;2.53;;;7.20;99.90;;;;;;4407994;28;655778;-72
2023/12/20 02:13:06;;;;;;;4.90;2.33;;;7.20;99.90;;;;;;4429903;28;655727;-72
2023/12/20 02:15:53;;;;;;;6.53;3.20;;;7.30;99.90;;;;;;4403560;28;656241;-72
2023/12/20 02:18:41;;;;;;;7.93;3.37;;;7.30;99.90;;;;;;4426076;28;657477;-72
2023/12/20 02:21:34;;;;;;;6.07;2.57;;;7.20;99.90;;;;;;4416212;28;656015;-72
2023/12/20 02:24:22;;;;;;;5.17;2.70;;;7.20;99.90;;;;;;4406077;28;655899;-72
2023/12/20 02:27:09;;;;;;;5.20;2.80;;;7.20;99.90;;;;;;4405902;28;655937;-72
2023/12/20 02:29:56;;;;;;;5.63;2.97;;;7.10;99.90;;;;;;4431836;28;655221;-72
2023/12/20 02:32:43;;;;;;;8.00;2.83;;;7.10;99.90;;;;;;4410209;28;655595;-72
2023/12/20 02:35:30;;;;;;;5.47;2.47;;;7.10;99.90;;;;;;4426284;28;656080;-72
2023/12/20 02:38:19;;;;;;;6.18;2.63;;;7.10;99.90;;;;;;4411084;28;656184;-71
2023/12/20 02:41:06;;;;;;;7.33;2.90;;;7.20;99.90;;;;;;4428828;28;655349;-72
2023/12/20 02:43:53;;;;;;;6.17;2.80;;;7.20;99.90;;;;;;4397307;28;655427;-71
2023/12/20 02:46:40;;;;;;;4.90;2.80;;;7.20;99.90;;;;;;4424098;28;655825;-72
2023/12/20 02:49:28;;;;;;;6.10;2.83;;;7.30;99.90;;;;;;4408533;28;655972;-72
2023/12/20 02:52:15;;;;;;;6.37;3.00;;;7.20;99.90;;;;;;4428212;28;656574;-71
2023/12/20 02:55:04;;;;;;;6.60;3.07;;;7.20;99.90;;;;;;4425527;28;656337;-71
2023/12/20 02:57:52;;;;;;;6.93;3.00;;;7.20;99.90;;;;;;4427150;28;655973;-72
2023/12/20 03:00:39;;;;;;;4.87;1.97;;;7.10;99.90;;;;;;4410112;28;655710;-72
2023/12/20 03:03:26;;;;;;;5.27;3.20;;;7.20;99.90;;;;;;4418554;28;655763;-71
2023/12/20 03:06:16;;;;;;;6.50;2.40;;;7.20;99.90;;;;;;4401163;28;655576;-71
2023/12/20 03:09:04;;;;;;;5.10;2.20;;;7.20;99.90;;;;;;4401109;28;655840;-72
2023/12/20 03:11:52;;;;;;;4.17;1.97;;;7.00;99.90;;;;;;4416492;28;657058;-72
2023/12/20 03:14:39;;;;;;;4.53;1.90;;;7.00;99.90;;;;;;4408859;28;656618;-72
2023/12/20 03:17:27;;;;;;;2.83;1.60;;;6.90;99.90;;;;;;4429843;28;655910;-71
2023/12/20 03:20:14;;;;;;;4.80;2.47;;;6.90;99.90;;;;;;4403186;28;655925;-72
2023/12/20 03:23:01;;;;;;;4.57;2.57;;;6.80;99.90;;;;;;4425068;28;655435;-72
2023/12/20 03:25:48;;;;;;;5.23;2.60;;;6.80;99.90;;;;;;4399312;28;655553;-72
2023/12/20 03:28:37;;;;;;;7.27;2.00;;;6.80;99.90;;;;;;4419371;28;656157;-71
2023/12/20 03:31:24;;;;;;;6.63;3.00;;;6.90;99.90;;;;;;4399750;28;656904;-71
2023/12/20 03:34:11;;;;;;;4.43;2.20;;;6.80;99.90;;;;;;4429822;28;655326;-72
2023/12/20 03:36:58;;;;;;;6.20;2.92;;;6.80;99.90;;;;;;4404181;28;655317;-72
2023/12/20 03:39:46;;;;;;;3.97;1.80;;;6.70;99.90;;;;;;4431875;28;655950;-72
2023/12/20 03:42:33;;;;;;;6.00;3.30;;;6.60;99.90;;;;;;4419781;28;655328;-72
2023/12/20 03:45:21;;;;;;;7.67;3.10;;;6.50;99.90;;;;;;4435203;28;656305;-71
2023/12/20 03:48:08;;;;;;;4.10;2.03;;;6.40;99.90;;;;;;4416943;28;655720;-71
2023/12/20 03:50:56;;;;;;;4.27;2.43;;;6.40;99.90;;;;;;4429561;28;655716;-72
2023/12/20 03:53:43;;;;;;;6.50;3.20;;;6.30;99.90;;;;;;4420007;28;655367;-71
2023/12/20 03:56:30;;;;;;;6.90;3.50;;;6.20;99.90;;;;;;4437726;28;656818;-72
2023/12/20 03:59:19;;;;;;;3.87;1.60;;;6.00;99.90;;;;;;4409114;28;656006;-71
2023/12/20 04:02:07;;;;;;;7.67;3.77;;;6.00;99.90;;;;;;4423064;28;656469;-71
2023/12/20 04:04:54;;;;;;;6.57;3.43;;;5.90;99.90;;;;;;4408430;28;656116;-72
2023/12/20 04:07:41;;;;;;;7.65;3.78;;;5.70;99.90;;;;;;4430965;28;656520;-72
2023/12/20 04:10:29;;;;;;;5.97;3.23;;;5.50;1.00;;;;;;4404061;28;655569;-71
2023/12/20 04:13:16;;;;;;;5.37;3.20;;;5.40;1.00;;;;;;4434932;28;654943;-70
2023/12/20 04:16:03;;;;;;;8.40;3.60;;;5.20;99.90;;;;;;4407092;28;654590;-71
2023/12/20 04:18:52;;;;;;;6.85;3.25;;;5.10;99.90;;;;;;4430101;28;656569;-71
2023/12/20 04:21:39;;;;;;;6.13;3.53;;;4.90;99.90;;;;;;4406582;28;656101;-71
2023/12/20 04:24:26;;;;;;;6.67;3.97;;;4.70;99.90;;;;;;4435310;28;655726;-70
2023/12/20 04:27:13;;;;;;;9.43;4.50;;;4.60;99.90;;;;;;4412732;28;655887;-71
2023/12/20 04:30:00;;;;;;;9.40;4.40;;;4.40;99.90;;;;;;4430326;28;656901;-71
2023/12/20 04:32:48;;;;;;;5.53;2.63;;;4.20;99.90;;;;;;4411990;28;655614;-70
2023/12/20 04:35:36;;;;;;;10.90;4.97;;;4.20;99.90;;;;;;4431396;28;656140;-71
2023/12/20 04:38:23;;;;;;;11.37;5.17;;;4.00;99.90;;;;;;4413892;28;656619;-71
2023/12/20 04:41:10;;;;;;;9.73;5.20;;;4.00;99.90;;;;;;4434045;28;656772;-71
2023/12/20 04:43:58;;;;;;;9.43;4.57;;;3.90;99.90;;;;;;4410660;28;655506;-70
2023/12/20 04:46:45;;;;;;;6.50;3.07;;;3.90;99.90;;;;;;4425185;28;657193;-70
2023/12/20 04:49:32;;;;;;;9.63;4.50;;;3.80;99.90;;;;;;4415373;28;655489;-70
2023/12/20 04:52:21;;;;;;;10.77;4.87;;;3.70;99.90;;;;;;4426442;28;655868;-71
2023/12/20 04:55:09;;;;;;;10.70;5.20;;;3.60;99.90;;;;;;4405982;28;656434;-70
2023/12/20 04:57:56;;;;;;;13.37;4.90;;;3.60;99.90;;;;;;4425554;28;657091;-71
2023/12/20 05:00:43;;;;;;;5.40;2.63;;;3.70;99.90;;;;;;4411001;28;657285;-71
2023/12/20 05:03:30;;;;;;;10.97;5.73;;;3.60;99.90;;;;;;4434474;28;655955;-71
2023/12/20 05:06:17;;;;;;;12.18;6.05;;;3.60;99.90;;;;;;4406107;28;656501;-70
2023/12/20 05:09:06;;;;;;;9.33;5.50;;;3.50;99.90;;;;;;4428875;28;657018;-71
2023/12/20 05:11:53;;;;;;;7.73;3.17;;;3.50;99.90;;;;;;4414890;28;655869;-71
2023/12/20 05:14:40;;;;;;;10.33;5.47;;;3.50;99.90;;;;;;4430709;28;655636;-70
2023/12/20 05:17:27;;;;;;;10.03;4.83;;;3.40;99.90;;;;;;4404807;28;656221;-71
2023/12/20 05:20:15;;;;;;;12.20;5.27;;;3.40;99.90;;;;;;4429394;28;657210;-71
2023/12/20 05:23:02;;;;;;;13.07;6.97;;;3.40;99.90;;;;;;4401728;28;656616;-70
2023/12/20 05:25:51;;;;;;;12.67;5.47;;;3.40;99.90;;;;;;4437094;28;656864;-71
2023/12/20 05:28:38;;;;;;;14.13;6.43;;;3.30;99.90;;;;;;4411791;28;656477;-71
2023/12/20 05:31:25;;;;;;;15.20;7.33;;;3.30;99.90;;;;;;4421520;28;657189;-71
2023/12/20 05:34:13;;;;;;;16.70;8.33;;;3.30;99.90;;;;;;4406950;28;656485;-70
2023/12/20 05:37:01;;;;;;;17.50;7.73;;;3.20;99.90;;;;;;4431641;28;658297;-71
2023/12/20 05:39:48;;;;;;;10.80;5.03;;;3.20;99.90;;;;;;4404121;28;656525;-71
2023/12/20 05:42:37;;;;;;;15.88;8.93;;;3.20;99.90;;;;;;4435229;28;658017;-71
2023/12/20 05:45:24;;;;;;;12.23;6.03;;;3.10;99.90;;;;;;4402954;28;657836;-72
2023/12/20 05:48:11;;;;;;;15.00;8.30;;;3.10;99.90;;;;;;4425389;28;657196;-72
2023/12/20 05:50:59;;;;;;;7.20;4.03;;;3.10;99.90;;;;;;4410747;28;656540;-71
2023/12/20 05:53:46;;;;;;;16.63;8.13;;;3.20;99.90;;;;;;4435091;28;656087;-72
2023/12/20 05:56:33;;;;;;;18.93;9.17;;;3.20;99.90;;;;;;4402827;28;656295;-72
2023/12/20 05:59:22;;;;;;;14.83;8.03;;;3.20;99.90;;;;;;4425202;28;657297;-72
2023/12/20 06:02:09;;;;;;;17.20;8.50;;;3.20;99.90;;;;;;4408054;28;657901;-71
2023/12/20 06:04:56;;;;;;;17.13;9.23;;;3.20;99.90;;;;;;4431360;28;656329;-72
2023/12/20 06:07:44;;;;;;;18.50;7.70;;;3.20;99.90;;;;;;4412988;28;656647;-71
2023/12/20 06:10:32;;;;;;;7.67;3.53;;;3.20;99.90;;;;;;4425644;28;656737;-71
2023/12/20 06:13:19;;;;;;;24.40;10.27;;;3.20;99.90;;;;;;4407911;28;656041;-71
2023/12/20 06:16:08;;;;;;;20.10;9.17;;;3.20;99.90;;;;;;4425367;28;658278;-72
2023/12/20 06:18:55;;;;;;;9.17;4.77;;;3.20;99.90;;;;;;4408008;28;657068;-72
2023/12/20 06:21:42;;;;;;;21.87;11.27;;;3.20;99.90;;;;;;4432167;28;655416;-71
2023/12/20 06:24:30;;;;;;;15.90;8.87;;;3.20;99.90;;;;;;4425186;28;657348;-71
2023/12/20 06:27:17;;;;;;;20.23;10.13;;;3.10;99.90;;;;;;4424996;28;655896;-72
2023/12/20 06:30:05;;;;;;;16.60;8.73;;;3.10;99.90;;;;;;4403664;28;657865;-70
2023/12/20 06:32:54;;;;;;;18.83;7.80;;;3.20;99.90;;;;;;4415021;28;656931;-71
2023/12/20 06:35:42;;;;;;;19.80;10.67;;;3.10;99.90;;;;;;4429060;28;656805;-71
2023/12/20 06:38:29;;;;;;;25.70;10.67;;;3.10;99.90;;;;;;4403189;28;658045;-71
2023/12/20 06:41:17;;;;;;;20.33;9.53;;;3.10;99.90;;;;;;4424984;28;657531;-71
2023/12/20 06:44:04;;;;;;;25.80;13.53;;;3.10;99.90;;;;;;4405931;28;656447;-71
2023/12/20 06:46:51;;;;;;;15.43;6.53;;;3.10;99.90;;;;;;4420893;28;657505;-72
2023/12/20 06:49:40;;;;;;;21.50;11.77;;;3.10;99.90;;;;;;4401468;28;657287;-71
2023/12/20 06:52:27;;;;;;;22.33;11.77;;;3.10;99.90;;;;;;4418524;28;657724;-71
2023/12/20 06:55:15;;;;;;;24.73;12.63;;;3.10;99.90;;;;;;4434655;28;658021;-71
2023/12/20 06:58:02;;;;;;;19.93;10.10;;;3.10;99.90;;;;;;4415013;28;659783;-71
2023/12/20 07:00:49;;;;;;;26.43;13.23;;;3.10;99.90;;;;;;4394903;28;658682;-71
2023/12/20 07:03:36;;;;;;;17.10;9.17;;;3.10;99.90;;;;;;4419950;28;658147;-71
2023/12/20 07:06:25;;;;;;;26.53;13.83;;;3.10;99.90;;;;;;4395212;28;657273;-71
2023/12/20 07:09:13;;;;;;;21.95;11.82;;;3.00;99.90;;;;;;4407474;28;657899;-70
2023/12/20 07:12:01;;;;;;;24.20;13.33;;;3.00;99.90;;;;;;4420539;28;658711;-71
2023/12/20 07:14:48;;;;;;;13.57;7.73;;;3.00;99.90;;;;;;4397179;28;658144;-70
2023/12/20 07:17:35;;;;;;;25.53;13.53;;;2.90;99.90;;;;;;4425554;28;657291;-71
2023/12/20 07:20:22;;;;;;;18.92;9.65;;;2.90;99.90;;;;;;4404872;28;658238;-70
2023/12/20 07:23:11;;;;;;;13.10;6.80;;;2.90;99.90;;;;;;4416366;28;656779;-70
2023/12/20 07:25:58;;;;;;;24.27;12.37;;;2.90;99.90;;;;;;4399025;28;656817;-71
2023/12/20 07:28:45;;;;;;;18.33;7.27;;;2.90;99.90;;;;;;4421316;28;658162;-70
2023/12/20 07:31:33;;;;;;;30.15;14.20;;;2.90;99.90;;;;;;4395571;28;657122;-71
2023/12/20 07:34:20;;;;;;;24.97;12.50;;;2.80;99.90;;;;;;4414229;28;658366;-70
2023/12/20 07:37:10;;;;;;;18.00;9.97;;;2.80;99.90;;;;;;4415542;28;657802;-71
2023/12/20 07:39:58;;;;;;;21.87;10.53;;;2.70;99.90;;;;;;4421177;28;656176;-71
2023/12/20 07:42:45;;;;;;;24.23;13.43;;;2.70;99.90;;;;;;4404710;28;657659;-71
2023/12/20 07:45:32;;;;;;;19.47;11.30;;;2.60;99.90;;;;;;4399897;28;657833;-71
2023/12/20 07:48:20;;;;;;;28.77;14.93;;;2.70;99.90;;;;;;4417879;28;658300;-70
2023/12/20 07:51:09;;;;;;;19.93;11.00;;;2.60;99.90;;;;;;4421402;28;657987;-71
2023/12/20 07:53:56;;;;;;;29.03;15.40;;;2.60;99.90;;;;;;4390589;28;658082;-71
2023/12/20 07:56:47;;;;;;;24.97;12.57;;;2.50;99.90;;;;;;4394196;28;657800;-71
2023/12/20 07:59:34;;;;;;;25.80;14.33;;;2.50;99.90;;;;;;4387670;28;658143;-71
2023/12/20 08:02:21;;;;;;;26.40;12.63;;;2.50;99.90;;;;;;4408669;28;658086;-71
2023/12/20 08:05:09;;;;;;;7.10;3.67;;;2.50;99.90;;;;;;4393252;28;657618;-71
2023/12/20 08:07:56;;;;;;;29.70;15.93;;;2.50;99.90;;;;;;4416218;28;655048;-71
2023/12/20 08:10:43;;;;;;;27.63;14.88;;;2.50;99.90;;;;;;4386327;28;657484;-70
2023/12/20 08:13:32;;;;;;;34.53;15.90;;;2.50;99.90;;;;;;4415054;28;658462;-71
2023/12/20 08:16:19;;;;;;;28.43;14.37;;;2.50;99.90;;;;;;4381325;28;658432;-70
2023/12/20 08:19:06;;;;;;;20.57;10.30;;;2.50;99.90;;;;;;4419163;28;657460;-70
2023/12/20 08:21:53;;;;;;;20.50;9.73;;;2.50;99.90;;;;;;4389996;28;657513;-70
2023/12/20 08:24:41;;;;;;;24.27;13.07;;;2.50;99.90;;;;;;4413410;28;657237;-70
2023/12/20 08:27:28;;;;;;;27.70;15.37;;;2.50;99.90;;;;;;4393073;28;657596;-70
2023/12/20 08:30:20;;;;;;;27.83;14.40;;;2.50;99.90;;;;;;4408876;28;659472;-71
2023/12/20 08:33:11;;;;;;;22.17;12.00;;;2.60;99.90;;;;;;4371690;28;658043;-71
2023/12/20 08:35:58;;;;;;;15.33;7.37;;;2.60;99.90;;;;;;4394705;28;658302;-70
2023/12/20 08:38:45;;;;;;;12.83;5.77;;;2.50;99.90;;;;;;4417783;28;657746;-71
2023/12/20 08:41:32;;;;;;;22.13;10.35;;;2.50;99.90;;;;;;4395153;28;656789;-71
2023/12/20 08:44:21;;;;;;;25.10;13.03;;;2.50;99.90;;;;;;4416529;28;658245;-71
2023/12/20 08:47:13;;;;;;;16.23;8.07;;;2.50;99.90;;;;;;4401859;28;657743;-70
2023/12/20 08:50:01;;;;;;;18.73;7.83;;;2.50;99.90;;;;;;4393749;28;657033;-71
2023/12/20 08:52:48;;;;;;;19.20;9.57;;;2.50;99.90;;;;;;4394151;28;656525;-70
2023/12/20 08:55:35;;;;;;;25.65;13.13;;;2.40;99.90;;;;;;4416216;28;657100;-70
2023/12/20 08:58:23;;;;;;;22.67;12.50;;;2.40;99.90;;;;;;4397393;28;657550;-71
2023/12/20 09:01:10;;;;;;;20.03;9.33;;;2.50;99.90;;;;;;4418458;28;658194;-71
2023/12/20 09:03:59;;;;;;;24.13;13.50;;;2.40;99.90;;;;;;4416511;28;656967;-71
2023/12/20 09:06:46;;;;;;;16.17;7.27;;;2.40;99.90;;;;;;4420688;28;657388;-72
2023/12/20 09:09:33;;;;;;;15.20;7.10;;;2.40;99.90;;;;;;4404147;28;656361;-70
2023/12/20 09:12:20;;;;;;;16.07;9.03;;;2.40;99.90;;;;;;4424637;28;656936;-70
2023/12/20 09:15:08;;;;;;;21.53;11.57;;;2.40;99.90;;;;;;4405212;28;656508;-70
2023/12/20 09:17:55;;;;;;;15.77;8.63;;;2.30;99.90;;;;;;4420463;28;658773;-70
2023/12/20 09:20:44;;;;;;;19.53;11.00;;;2.40;99.90;;;;;;4414406;28;657072;-70
2023/12/20 09:23:31;;;;;;;21.73;11.07;;;2.30;99.90;;;;;;4421902;28;657477;-70
2023/12/20 09:26:18;;;;;;;18.30;8.57;;;2.30;99.90;;;;;;4404181;28;657520;-70
2023/12/20 09:29:07;;;;;;;18.77;9.63;;;2.40;99.90;;;;;;4426113;28;656795;-70
2023/12/20 09:31:54;;;;;;;20.77;11.07;;;2.40;99.90;;;;;;4401372;28;658829;-70
2023/12/20 09:34:42;;;;;;;15.15;8.40;;;2.40;99.90;;;;;;4414218;28;657898;-69
2023/12/20 09:37:30;;;;;;;18.80;9.37;;;2.40;99.90;;;;;;4399372;28;657323;-70
2023/12/20 09:40:19;;;;;;;17.83;9.88;;;2.30;99.90;;;;;;4400176;28;656793;-70
2023/12/20 09:43:09;;;;;;;17.33;9.30;;;2.40;99.90;;;;;;4416291;28;656504;-70
2023/12/20 09:45:56;;;;;;;20.00;9.53;;;2.40;99.90;;;;;;4405370;28;656589;-71
2023/12/20 09:48:45;;;;;;;22.63;12.10;;;2.40;99.90;;;;;;4404810;28;656967;-70
2023/12/20 09:51:32;;;;;;;22.37;11.33;;;2.30;99.90;;;;;;4423354;28;657367;-71
2023/12/20 09:54:21;;;;;;;18.93;9.53;;;2.40;99.90;;;;;;4399593;28;658172;-70
2023/12/20 09:57:08;;;;;;;18.70;10.55;;;2.40;99.90;;;;;;4390197;28;656876;-69
2023/12/20 09:59:56;;;;;;;26.93;12.63;;;2.40;99.90;;;;;;4419904;28;657689;-71
2023/12/20 10:02:46;;;;;;;18.77;10.70;;;2.30;99.90;;;;;;4399153;28;658135;-70
2023/12/20 10:05:34;;;;;;;18.03;9.83;;;2.40;99.90;;;;;;4402556;28;657720;-70
2023/12/20 10:08:22;;;;;;;17.17;9.73;;;2.40;99.90;;;;;;4421906;28;657361;-71
2023/12/20 10:11:10;;;;;;;22.17;12.17;;;2.40;99.90;;;;;;4405394;28;656536;-70
2023/12/20 10:14:00;;;;;;;22.40;10.63;;;2.40;99.90;;;;;;4403572;28;657607;-70
2023/12/20 10:16:47;;;;;;;22.63;12.40;;;2.40;99.90;;;;;;4397985;28;657711;-70
2023/12/20 10:19:36;;;;;;;18.50;9.50;;;2.40;99.90;;;;;;4416505;28;657472;-70
2023/12/20 10:22:23;;;;;;;27.60;13.97;;;2.50;99.90;;;;;;4403221;28;656794;-71
2023/12/20 10:25:10;;;;;;;21.53;12.13;;;2.50;99.90;;;;;;4422430;28;657945;-70
2023/12/20 10:28:12;;;;;;;23.27;13.23;;;2.50;99.90;;;;;;4403924;28;657777;-70
2023/12/20 10:30:59;;;;;;;16.27;9.80;;;2.50;99.90;;;;;;4375410;28;657923;-70
2023/12/20 10:33:46;;;;;;;20.03;11.13;;;2.60;99.90;;;;;;4422753;28;656438;-70
2023/12/20 10:36:34;;;;;;;25.07;14.03;;;2.60;99.90;;;;;;4398580;28;657395;-71
2023/12/20 10:39:22;;;;;;;29.07;14.33;;;2.60;99.90;;;;;;4417000;28;657535;-70
2023/12/20 10:42:09;;;;;;;28.17;13.57;;;2.60;99.90;;;;;;4399148;28;658114;-71
2023/12/20 10:44:57;;;;;;;27.47;15.27;;;2.70;99.90;;;;;;4604142;28;657675;-71
2023/12/20 10:47:46;;;;;;;27.20;15.03;;;2.70;99.90;;;;;;4397364;28;658793;-70
2023/12/20 10:50:33;;;;;;;26.40;14.70;;;2.80;99.90;;;;;;4397483;28;657848;-71
2023/12/20 10:53:20;;;;;;;12.93;7.13;;;2.70;99.90;;;;;;4418803;28;657941;-70
2023/12/20 10:56:08;;;;;;;25.45;13.82;;;2.80;99.90;;;;;;4405768;28;657257;-70
2023/12/20 10:58:55;;;;;;;25.57;13.83;;;2.90;99.90;;;;;;4533262;28;659259;-70
2023/12/20 11:01:44;;;;;;;21.97;10.30;;;2.90;99.90;;;;;;4626907;28;537330;-70
2023/12/20 11:04:36;;;;;;;23.77;13.17;;;2.90;99.90;;;;;;4420113;28;657349;-71
2023/12/20 11:07:26;;;;;;;20.37;9.87;;;2.90;99.90;;;;;;4591719;28;657930;-70
2023/12/20 11:10:16;;;;;;;12.27;6.80;;;2.90;99.90;;;;;;4757308;28;535772;-70
2023/12/20 11:13:09;;;;;;;17.80;10.23;;;2.90;99.90;;;;;;4405643;28;656404;-70
2023/12/20 11:15:56;;;;;;;22.93;11.97;;;3.00;99.90;;;;;;4403962;28;657258;-71
2023/12/20 11:18:46;;;;;;;18.50;10.33;;;3.00;99.90;;;;;;4401061;28;657473;-71
2023/12/20 11:21:33;;;;;;;19.60;9.63;;;2.90;99.90;;;;;;4397795;28;658282;-70
2023/12/20 11:24:23;;;;;;;18.30;10.80;;;3.00;99.90;;;;;;4429070;28;657645;-71
2023/12/20 11:27:10;;;;;;;14.60;9.15;;;3.00;99.90;;;;;;4397283;28;658438;-70
2023/12/20 11:29:59;;;;;;;22.43;10.87;;;3.00;99.90;;;;;;4419303;28;657423;-71
2023/12/20 11:32:47;;;;;;;18.67;10.17;;;2.90;99.90;;;;;;4422982;28;658160;-71
2023/12/20 11:35:36;;;;;;;20.63;11.50;;;2.90;99.90;;;;;;4406698;28;657711;-71
2023/12/20 11:38:24;;;;;;;24.03;12.70;;;2.90;99.90;;;;;;4393228;28;657303;-70
2023/12/20 11:41:11;;;;;;;17.10;9.27;;;2.90;99.90;;;;;;4415887;28;657682;-70
2023/12/20 11:43:58;;;;;;;16.43;9.60;;;3.00;99.90;;;;;;4394514;28;656576;-71
2023/12/20 11:46:45;;;;;;;22.03;11.83;;;3.00;99.90;;;;;;4419965;28;656547;-71
2023/12/20 11:49:32;;;;;;;12.00;5.85;;;3.00;99.90;;;;;;4399014;28;657767;-70
2023/12/20 11:52:21;;;;;;;26.00;13.97;;;3.00;99.90;;;;;;4425223;28;657601;-71
2023/12/20 11:55:08;;;;;;;32.23;15.13;;;3.00;99.90;;;;;;4401378;28;657586;-71
2023/12/20 11:57:55;;;;;;;25.88;14.43;;;2.90;99.90;;;;;;4424572;28;658085;-71
2023/12/20 12:00:43;;;;;;;25.53;12.73;;;3.00;99.90;;;;;;4404130;28;657758;-71
2023/12/20 12:03:30;;;;;;;23.93;12.40;;;3.00;99.90;;;;;;4418411;28;658962;-72
2023/12/20 12:06:18;;;;;;;27.33;14.87;;;3.00;99.90;;;;;;4412417;28;657543;-72
2023/12/20 12:09:07;;;;;;;23.57;12.63;;;3.00;99.90;;;;;;4419036;28;658374;-72
2023/12/20 12:11:54;;;;;;;27.97;15.50;;;3.00;99.90;;;;;;4397717;28;657866;-71
2023/12/20 12:14:41;;;;;;;17.10;9.77;;;3.00;99.90;;;;;;4426378;28;657574;-71
2023/12/20 12:17:29;;;;;;;25.60;13.48;;;3.00;99.90;;;;;;4403776;28;656609;-71
2023/12/20 12:20:16;;;;;;;24.33;13.57;;;3.00;99.90;;;;;;4424898;28;657379;-72
2023/12/20 12:23:03;;;;;;;25.70;14.20;;;3.00;99.90;;;;;;4400521;28;657547;-71
2023/12/20 12:25:52;;;;;;;28.53;13.43;;;3.00;99.90;;;;;;4421184;28;658065;-71
2023/12/20 12:28:41;;;;;;;27.27;13.97;;;3.00;99.90;;;;;;4393857;28;658959;-71
2023/12/20 12:31:28;;;;;;;29.93;14.53;;;3.10;99.90;;;;;;4394706;28;657488;-72
2023/12/20 12:34:16;;;;;;;19.90;11.43;;;3.10;99.90;;;;;;4415694;28;657075;-72
2023/12/20 12:37:04;;;;;;;23.43;13.20;;;3.10;99.90;;;;;;4398146;28;657668;-72
2023/12/20 12:39:51;;;;;;;14.60;7.50;;;3.10;99.90;;;;;;4416006;28;657279;-71
2023/12/20 12:42:40;;;;;;;9.30;5.03;;;3.10;99.90;;;;;;4401789;28;656415;-71
2023/12/20 12:45:28;;;;;;;20.70;11.40;;;3.10;99.90;;;;;;4406347;28;655802;-70
2023/12/20 12:48:15;;;;;;;16.03;9.17;;;3.10;99.90;;;;;;4424729;28;657506;-72
2023/12/20 12:51:02;;;;;;;17.30;9.40;;;3.10;99.90;;;;;;4405432;28;656532;-72
2023/12/20 12:53:50;;;;;;;13.83;7.10;;;3.10;99.90;;;;;;4425402;28;656826;-72
2023/12/20 12:56:37;;;;;;;19.33;10.20;;;3.10;99.90;;;;;;4422834;28;656846;-73
2023/12/20 12:59:26;;;;;;;22.37;13.47;;;3.10;99.90;;;;;;4398566;28;658720;-73
2023/12/20 13:02:14;;;;;;;23.93;11.83;;;3.10;99.90;;;;;;4401854;28;658474;-72
2023/12/20 13:05:02;;;;;;;25.57;12.47;;;3.10;99.90;;;;;;4421577;28;657798;-73
2023/12/20 13:07:49;;;;;;;14.20;6.27;;;3.20;99.90;;;;;;4399015;28;658514;-73
2023/12/20 13:10:36;;;;;;;25.57;13.17;;;3.20;99.90;;;;;;4419129;28;656386;-73
2023/12/20 13:13:24;;;;;;;21.80;12.43;;;3.20;99.90;;;;;;4406541;28;658232;-73
2023/12/20 13:16:13;;;;;;;22.07;13.07;;;3.20;99.90;;;;;;4415087;28;657803;-72
2023/12/20 13:19:00;;;;;;;24.30;13.27;;;3.20;99.90;;;;;;4402438;28;658684;-73
2023/12/20 13:21:48;;;;;;;25.37;12.07;;;3.30;99.90;;;;;;4428235;28;658200;-72
2023/12/20 13:24:35;;;;;;;22.33;13.03;;;3.20;99.90;;;;;;4427507;28;657473;-72
2023/12/20 13:27:23;;;;;;;21.77;8.07;;;3.20;99.90;;;;;;4400468;28;657751;-72
2023/12/20 13:30:11;;;;;;;21.87;11.10;;;3.30;99.90;;;;;;4420178;28;656615;-73
2023/12/20 13:33:00;;;;;;;22.55;11.13;;;3.20;99.90;;;;;;4407142;28;657729;-73
2023/12/20 13:35:47;;;;;;;16.73;6.33;;;3.20;99.90;;;;;;4402450;28;658047;-72
2023/12/20 13:38:35;;;;;;;24.03;13.63;;;3.20;99.90;;;;;;4425083;28;656327;-73
2023/12/20 13:41:22;;;;;;;28.20;15.10;;;3.20;99.90;;;;;;4418485;28;658481;-72
2023/12/20 13:44:09;;;;;;;31.67;14.87;;;3.20;99.90;;;;;;4407575;28;657427;-73
2023/12/20 13:46:56;;;;;;;30.33;13.80;;;3.20;99.90;;;;;;4424585;28;657696;-73
2023/12/20 13:49:45;;;;;;;25.57;8.40;;;3.20;99.90;;;;;;4402495;28;657554;-72
2023/12/20 13:52:32;;;;;;;26.60;14.07;;;3.30;99.90;;;;;;4414709;28;657138;-72
2023/12/20 13:55:21;;;;;;;28.97;15.10;;;3.30;99.90;;;;;;4421658;28;657970;-73
2023/12/20 13:58:09;;;;;;;31.67;16.13;;;3.30;99.90;;;;;;4409469;28;658253;-73
2023/12/20 14:00:58;;;;;;;33.83;17.63;;;3.30;99.90;;;;;;4424617;28;656636;-73
2023/12/20 14:03:45;;;;;;;31.43;17.33;;;3.20;99.90;;;;;;4396959;28;658159;-72
2023/12/20 14:06:34;;;;;;;13.27;6.83;;;3.30;99.90;;;;;;4413945;28;657533;-72
2023/12/20 14:09:21;;;;;;;34.43;18.07;;;3.40;99.90;;;;;;4421284;28;657796;-73
2023/12/20 14:12:09;;;;;;;36.90;19.30;;;3.30;99.90;;;;;;4402090;28;657513;-72
2023/12/20 14:14:56;;;;;;;14.23;7.00;;;3.30;99.90;;;;;;4421860;28;657764;-73
2023/12/20 14:17:43;;;;;;;35.47;18.50;;;3.40;99.90;;;;;;4400268;28;656923;-72
2023/12/20 14:20:31;;;;;;;52.43;27.17;;;3.30;99.90;;;;;;4421636;28;657975;-72